sensor_id;sensor_type;location;lat;lon;timestamp;pressure;altitude;pressure_sealevel;temperature;humidity
67052;BME280;53957;47.222;18.670;2023-03-04T00:01:49;100360.94;;;0.58;100.00
67052;BME280;53957;47.222;18.670;2023-03-04T00:04:54;100366.94;;;0.66;100.00
67052;BME280;53957;47.222;18.670;2023-03-04T00:08:05;100375.94;;;0.76;100.00
67052;BME280;53957;47.222;18.670;2023-03-04T00:11:12;100374.91;;;0.77;100.00
67052;BME280;53957;47.222;18.670;2023-03-04T00:14:52;100370.00;;;0.88;100.00
67052;BME280;53957;47.222;18.670;2023-03-04T00:18:00;100374.19;;;0.95;100.00
67052;BME280;53957;47.222;18.670;2023-03-04T00:21:11;100368.97;;;0.89;100.00
67052;BME280;53957;47.222;18.670;2023-03-04T00:24:17;100358.16;;;0.78;100.00
67052;BME280;53957;47.222;18.670;2023-03-04T00:27:20;100352.13;;;0.71;100.00
67052;BME280;53957;47.222;18.670;2023-03-04T00:30:24;100353.97;;;0.71;100.00
67052;BME280;53957;47.222;18.670;2023-03-04T00:33:49;100351.19;;;0.66;100.00
67052;BME280;53957;47.222;18.670;2023-03-04T00:37:13;100350.84;;;0.55;100.00
67052;BME280;53957;47.222;18.670;2023-03-04T00:40:33;100349.66;;;0.51;100.00
67052;BME280;53957;47.222;18.670;2023-03-04T00:43:39;100353.31;;;0.50;100.00
67052;BME280;53957;47.222;18.670;2023-03-04T00:46:42;100356.53;;;0.52;100.00
67052;BME280;53957;47.222;18.670;2023-03-04T00:49:45;100354.91;;;0.51;100.00
67052;BME280;53957;47.222;18.670;2023-03-04T00:52:49;100360.56;;;0.48;100.00
67052;BME280;53957;47.222;18.670;2023-03-04T00:56:14;100345.66;;;0.48;100.00
67052;BME280;53957;47.222;18.670;2023-03-04T00:59:20;100336.41;;;0.39;100.00
67052;BME280;53957;47.222;18.670;2023-03-04T01:02:25;100339.31;;;0.24;100.00
67052;BME280;53957;47.222;18.670;2023-03-04T01:05:28;100336.38;;;0.14;100.00
67052;BME280;53957;47.222;18.670;2023-03-04T01:08:56;100332.81;;;0.02;100.00
67052;BME280;53957;47.222;18.670;2023-03-04T01:12:02;100328.53;;;0.07;100.00
67052;BME280;53957;47.222;18.670;2023-03-04T01:15:07;100324.87;;;0.15;100.00
67052;BME280;53957;47.222;18.670;2023-03-04T01:18:32;100338.47;;;0.30;100.00
67052;BME280;53957;47.222;18.670;2023-03-04T01:21:39;100333.22;;;0.37;100.00
67052;BME280;53957;47.222;18.670;2023-03-04T01:24:42;100330.75;;;0.42;100.00
67052;BME280;53957;47.222;18.670;2023-03-04T01:27:46;100331.28;;;0.51;100.00
67052;BME280;53957;47.222;18.670;2023-03-04T01:30:49;100324.63;;;0.80;100.00
67052;BME280;53957;47.222;18.670;2023-03-04T01:34:13;100313.78;;;0.95;98.00
67052;BME280;53957;47.222;18.670;2023-03-04T01:37:36;100318.69;;;0.85;99.85
67052;BME280;53957;47.222;18.670;2023-03-04T01:40:41;100311.03;;;0.84;100.00
67052;BME280;53957;47.222;18.670;2023-03-04T01:44:04;100308.91;;;0.74;100.00
67052;BME280;53957;47.222;18.670;2023-03-04T01:47:09;100311.53;;;0.74;100.00
67052;BME280;53957;47.222;18.670;2023-03-04T01:50:28;100304.72;;;0.66;100.00
67052;BME280;53957;47.222;18.670;2023-03-04T01:53:34;100304.19;;;0.57;100.00
67052;BME280;53957;47.222;18.670;2023-03-04T01:56:44;100310.22;;;0.58;100.00
67052;BME280;53957;47.222;18.670;2023-03-04T02:00:31;100308.09;;;0.48;100.00
67052;BME280;53957;47.222;18.670;2023-03-04T02:03:35;100297.25;;;0.38;100.00
67052;BME280;53957;47.222;18.670;2023-03-04T02:07:00;100304.53;;;0.36;100.00
67052;BME280;53957;47.222;18.670;2023-03-04T02:10:04;100301.66;;;0.12;100.00
67052;BME280;53957;47.222;18.670;2023-03-04T02:13:11;100295.63;;;0.11;100.00
67052;BME280;53957;47.222;18.670;2023-03-04T02:16:14;100290.84;;;0.02;100.00
67052;BME280;53957;47.222;18.670;2023-03-04T02:22:31;100293.31;;;-0.10;100.00
67052;BME280;53957;47.222;18.670;2023-03-04T02:29:18;100279.81;;;-0.07;100.00
67052;BME280;53957;47.222;18.670;2023-03-04T02:32:23;100283.81;;;-0.05;100.00
67052;BME280;53957;47.222;18.670;2023-03-04T02:35:26;100269.25;;;0.06;100.00
67052;BME280;53957;47.222;18.670;2023-03-04T02:38:51;100277.91;;;0.07;100.00
67052;BME280;53957;47.222;18.670;2023-03-04T02:41:55;100269.22;;;-0.26;100.00
67052;BME280;53957;47.222;18.670;2023-03-04T02:45:01;100275.69;;;-0.28;100.00
67052;BME280;53957;47.222;18.670;2023-03-04T02:48:06;100271.16;;;-0.14;100.00
67052;BME280;53957;47.222;18.670;2023-03-04T02:51:30;100270.16;;;-0.13;100.00
67052;BME280;53957;47.222;18.670;2023-03-04T02:54:33;100262.06;;;-0.12;100.00
67052;BME280;53957;47.222;18.670;2023-03-04T02:57:38;100263.69;;;-0.18;100.00
67052;BME280;53957;47.222;18.670;2023-03-04T03:01:01;100260.56;;;-0.33;100.00
67052;BME280;53957;47.222;18.670;2023-03-04T03:04:05;100249.31;;;-0.47;100.00
67052;BME280;53957;47.222;18.670;2023-03-04T03:07:28;100248.78;;;-0.62;100.00
67052;BME280;53957;47.222;18.670;2023-03-04T03:10:33;100242.56;;;-0.61;100.00
67052;BME280;53957;47.222;18.670;2023-03-04T03:13:50;100246.69;;;-0.47;100.00
67052;BME280;53957;47.222;18.670;2023-03-04T03:17:17;100249.25;;;-0.34;100.00
67052;BME280;53957;47.222;18.670;2023-03-04T03:20:22;100249.03;;;-0.25;100.00
67052;BME280;53957;47.222;18.670;2023-03-04T03:23:30;100246.00;;;-0.22;100.00
67052;BME280;53957;47.222;18.670;2023-03-04T03:26:53;100248.78;;;-0.17;100.00
67052;BME280;53957;47.222;18.670;2023-03-04T03:30:17;100240.16;;;0.08;100.00
67052;BME280;53957;47.222;18.670;2023-03-04T03:33:22;100240.19;;;0.01;100.00
67052;BME280;53957;47.222;18.670;2023-03-04T03:36:32;100237.56;;;0.01;100.00
67052;BME280;53957;47.222;18.670;2023-03-04T03:39:37;100238.03;;;-0.09;100.00
67052;BME280;53957;47.222;18.670;2023-03-04T03:43:01;100239.47;;;-0.13;100.00
67052;BME280;53957;47.222;18.670;2023-03-04T03:46:24;100225.38;;;-0.12;100.00
67052;BME280;53957;47.222;18.670;2023-03-04T03:49:29;100235.22;;;-0.07;100.00
67052;BME280;53957;47.222;18.670;2023-03-04T03:52:49;100226.69;;;-0.03;100.00
67052;BME280;53957;47.222;18.670;2023-03-04T03:56:01;100230.00;;;-0.14;100.00
67052;BME280;53957;47.222;18.670;2023-03-04T03:59:05;100237.16;;;-0.35;100.00
67052;BME280;53957;47.222;18.670;2023-03-04T04:02:10;100227.47;;;-0.27;100.00
67052;BME280;53957;47.222;18.670;2023-03-04T04:05:13;100233.31;;;-0.25;100.00
67052;BME280;53957;47.222;18.670;2023-03-04T04:08:17;100227.84;;;-0.24;100.00
67052;BME280;53957;47.222;18.670;2023-03-04T04:11:22;100216.59;;;-0.31;100.00
67052;BME280;53957;47.222;18.670;2023-03-04T04:14:46;100217.41;;;-0.30;100.00
67052;BME280;53957;47.222;18.670;2023-03-04T07:37:33;100261.34;;;9.87;60.33
67052;BME280;53957;47.222;18.670;2023-03-04T07:40:39;100269.53;;;8.64;64.99
67052;BME280;53957;47.222;18.670;2023-03-04T07:43:43;100262.50;;;9.05;64.11
67052;BME280;53957;47.222;18.670;2023-03-04T07:46:46;100270.28;;;8.44;66.63
67052;BME280;53957;47.222;18.670;2023-03-04T07:49:49;100265.78;;;8.34;66.07
67052;BME280;53957;47.222;18.670;2023-03-04T07:52:52;100267.19;;;9.39;65.82
67052;BME280;53957;47.222;18.670;2023-03-04T07:55:55;100270.25;;;8.96;64.29
67052;BME280;53957;47.222;18.670;2023-03-04T07:58:59;100273.63;;;10.17;60.40
67052;BME280;53957;47.222;18.670;2023-03-04T08:02:03;100281.78;;;10.71;58.80
67052;BME280;53957;47.222;18.670;2023-03-04T08:05:07;100262.47;;;10.15;62.33
67052;BME280;53957;47.222;18.670;2023-03-04T08:08:09;100266.81;;;10.40;61.10
67052;BME280;53957;47.222;18.670;2023-03-04T08:11:18;100278.22;;;10.51;61.69
67052;BME280;53957;47.222;18.670;2023-03-04T08:14:21;100267.34;;;10.96;57.57
67052;BME280;53957;47.222;18.670;2023-03-04T08:17:24;100270.03;;;10.42;56.50
67052;BME280;53957;47.222;18.670;2023-03-04T08:20:36;100269.97;;;10.77;59.90
67052;BME280;53957;47.222;18.670;2023-03-04T08:24:00;100262.62;;;10.63;58.01
67052;BME280;53957;47.222;18.670;2023-03-04T08:27:09;100258.31;;;9.98;61.98
67052;BME280;53957;47.222;18.670;2023-03-04T08:30:13;100267.53;;;11.05;57.77
67052;BME280;53957;47.222;18.670;2023-03-04T08:33:16;100267.78;;;10.79;60.15
67052;BME280;53957;47.222;18.670;2023-03-04T08:36:19;100262.34;;;11.38;55.65
67052;BME280;53957;47.222;18.670;2023-03-04T08:39:22;100267.31;;;11.01;55.43
67052;BME280;53957;47.222;18.670;2023-03-04T08:42:25;100264.37;;;11.03;55.42
67052;BME280;53957;47.222;18.670;2023-03-04T08:45:28;100265.47;;;11.83;54.89
67052;BME280;53957;47.222;18.670;2023-03-04T08:48:31;100263.41;;;11.99;54.55
67052;BME280;53957;47.222;18.670;2023-03-04T08:51:54;100255.44;;;12.60;48.28
67052;BME280;53957;47.222;18.670;2023-03-04T08:54:58;100261.50;;;12.19;49.84
67052;BME280;53957;47.222;18.670;2023-03-04T08:58:01;100256.09;;;12.38;49.68
67052;BME280;53957;47.222;18.670;2023-03-04T09:01:07;100252.03;;;11.50;53.62
67052;BME280;53957;47.222;18.670;2023-03-04T09:04:33;100248.28;;;11.32;50.71
67052;BME280;53957;47.222;18.670;2023-03-04T09:08:19;100255.00;;;12.39;49.13
67052;BME280;53957;47.222;18.670;2023-03-04T09:11:32;100248.75;;;11.97;51.84
67052;BME280;53957;47.222;18.670;2023-03-04T09:14:36;100245.62;;;11.89;51.08
67052;BME280;53957;47.222;18.670;2023-03-04T09:17:39;100247.84;;;12.20;51.06
67052;BME280;53957;47.222;18.670;2023-03-04T09:20:43;100245.25;;;12.15;50.97
67052;BME280;53957;47.222;18.670;2023-03-04T09:23:46;100236.50;;;12.10;52.81
67052;BME280;53957;47.222;18.670;2023-03-04T09:27:08;100240.41;;;12.78;50.99
67052;BME280;53957;47.222;18.670;2023-03-04T09:30:11;100239.69;;;12.59;50.63
67052;BME280;53957;47.222;18.670;2023-03-04T09:33:15;100233.63;;;12.53;51.37
67052;BME280;53957;47.222;18.670;2023-03-04T09:36:18;100237.44;;;12.94;51.28
67052;BME280;53957;47.222;18.670;2023-03-04T09:39:21;100229.50;;;12.88;51.30
67052;BME280;53957;47.222;18.670;2023-03-04T09:42:42;100227.31;;;12.63;50.30
67052;BME280;53957;47.222;18.670;2023-03-04T09:46:01;100227.37;;;12.30;52.93
67052;BME280;53957;47.222;18.670;2023-03-04T09:49:12;100231.81;;;12.34;51.77
67052;BME280;53957;47.222;18.670;2023-03-04T09:52:56;100227.37;;;12.30;54.21
67052;BME280;53957;47.222;18.670;2023-03-04T09:56:04;100218.78;;;12.88;52.54
67052;BME280;53957;47.222;18.670;2023-03-04T09:59:16;100219.19;;;12.68;52.52
67052;BME280;53957;47.222;18.670;2023-03-04T10:02:46;100216.50;;;12.68;54.71
67052;BME280;53957;47.222;18.670;2023-03-04T10:06:00;100207.50;;;12.50;55.73
67052;BME280;53957;47.222;18.670;2023-03-04T10:09:22;100211.31;;;11.97;55.10
67052;BME280;53957;47.222;18.670;2023-03-04T10:12:28;100208.66;;;11.97;55.06
67052;BME280;53957;47.222;18.670;2023-03-04T10:15:45;100208.38;;;12.45;56.40
67052;BME280;53957;47.222;18.670;2023-03-04T10:25:44;100198.44;;;11.99;53.55
67052;BME280;53957;47.222;18.670;2023-03-04T10:28:48;100197.41;;;12.14;54.45
67052;BME280;53957;47.222;18.670;2023-03-04T10:31:52;100189.09;;;11.63;56.37
67052;BME280;53957;47.222;18.670;2023-03-04T10:34:57;100183.00;;;12.29;55.19
67052;BME280;53957;47.222;18.670;2023-03-04T10:38:02;100191.16;;;12.18;52.85
67052;BME280;53957;47.222;18.670;2023-03-04T10:41:14;100178.41;;;12.15;53.35
67052;BME280;53957;47.222;18.670;2023-03-04T10:44:18;100177.81;;;12.18;54.41
67052;BME280;53957;47.222;18.670;2023-03-04T10:47:26;100177.34;;;12.30;52.52
67052;BME280;53957;47.222;18.670;2023-03-04T10:50:30;100168.00;;;12.14;51.78
67052;BME280;53957;47.222;18.670;2023-03-04T10:53:39;100163.94;;;11.83;50.11
67052;BME280;53957;47.222;18.670;2023-03-04T10:56:59;100158.91;;;11.96;53.56
67052;BME280;53957;47.222;18.670;2023-03-04T11:06:39;100144.38;;;12.49;51.21
67052;BME280;53957;47.222;18.670;2023-03-04T11:09:44;100137.28;;;12.11;50.84
67052;BME280;53957;47.222;18.670;2023-03-04T11:12:54;100129.50;;;11.63;50.72
67052;BME280;53957;47.222;18.670;2023-03-04T11:16:04;100126.78;;;12.01;49.09
67052;BME280;53957;47.222;18.670;2023-03-04T11:19:14;100110.81;;;11.63;49.90
67052;BME280;53957;47.222;18.670;2023-03-04T11:22:20;100102.06;;;12.37;48.10
67052;BME280;53957;47.222;18.670;2023-03-04T11:25:31;100098.09;;;12.06;47.99
67052;BME280;53957;47.222;18.670;2023-03-04T11:28:51;100099.47;;;12.60;48.58
67052;BME280;53957;47.222;18.670;2023-03-04T13:20:18;99970.72;;;12.24;50.47
67052;BME280;53957;47.222;18.670;2023-03-04T13:23:27;99965.72;;;12.46;48.45
67052;BME280;53957;47.222;18.670;2023-03-04T13:26:38;99968.34;;;11.81;50.77
67052;BME280;53957;47.222;18.670;2023-03-04T13:29:46;99957.88;;;11.99;47.46
67052;BME280;53957;47.222;18.670;2023-03-04T13:32:50;99955.41;;;12.02;47.43
67052;BME280;53957;47.222;18.670;2023-03-04T13:39:32;99942.44;;;12.10;48.24
67052;BME280;53957;47.222;18.670;2023-03-04T13:42:39;99946.00;;;12.05;48.84
67052;BME280;53957;47.222;18.670;2023-03-04T13:45:43;99929.53;;;12.26;48.65
67052;BME280;53957;47.222;18.670;2023-03-04T13:51:52;99924.59;;;12.19;50.29
67052;BME280;53957;47.222;18.670;2023-03-04T13:58:36;99919.22;;;12.33;50.23
67052;BME280;53957;47.222;18.670;2023-03-04T14:01:48;99915.69;;;12.23;49.67
67052;BME280;53957;47.222;18.670;2023-03-04T14:08:16;99904.31;;;12.18;48.39
67052;BME280;53957;47.222;18.670;2023-03-04T14:11:35;99907.19;;;12.44;47.01
67052;BME280;53957;47.222;18.670;2023-03-04T14:14:53;99909.13;;;12.30;46.54
67052;BME280;53957;47.222;18.670;2023-03-04T14:18:16;99903.69;;;12.21;46.07
67052;BME280;53957;47.222;18.670;2023-03-04T14:21:20;99899.41;;;12.34;44.80
67052;BME280;53957;47.222;18.670;2023-03-04T14:24:24;99887.09;;;12.10;45.75
67052;BME280;53957;47.222;18.670;2023-03-04T14:27:28;99885.59;;;11.90;47.50
67052;BME280;53957;47.222;18.670;2023-03-04T14:30:34;99893.53;;;12.09;45.63
67052;BME280;53957;47.222;18.670;2023-03-04T14:33:51;99895.00;;;12.15;44.88
67052;BME280;53957;47.222;18.670;2023-03-04T14:36:57;99887.59;;;11.84;46.74
67052;BME280;53957;47.222;18.670;2023-03-04T14:40:01;99883.22;;;11.88;48.88
67052;BME280;53957;47.222;18.670;2023-03-04T14:43:27;99889.78;;;11.68;48.35
67052;BME280;53957;47.222;18.670;2023-03-04T14:46:57;99881.88;;;11.77;48.78
67052;BME280;53957;47.222;18.670;2023-03-04T14:50:13;99876.03;;;11.75;48.80
67052;BME280;53957;47.222;18.670;2023-03-04T14:53:19;99877.03;;;11.51;50.32
67052;BME280;53957;47.222;18.670;2023-03-04T14:56:27;99866.63;;;11.36;48.81
67052;BME280;53957;47.222;18.670;2023-03-04T14:59:34;99867.62;;;11.54;46.99
67052;BME280;53957;47.222;18.670;2023-03-04T15:02:42;99865.28;;;11.38;49.68
67052;BME280;53957;47.222;18.670;2023-03-04T15:06:05;99866.81;;;11.25;46.90
67052;BME280;53957;47.222;18.670;2023-03-04T15:12:29;99872.37;;;11.15;46.67
67052;BME280;53957;47.222;18.670;2023-03-04T15:15:41;99858.72;;;11.31;45.81
67052;BME280;53957;47.222;18.670;2023-03-04T15:18:54;99859.28;;;11.14;47.24
67052;BME280;53957;47.222;18.670;2023-03-04T15:22:05;99859.81;;;10.83;48.76
67052;BME280;53957;47.222;18.670;2023-03-04T15:25:11;99853.12;;;10.85;49.71
67052;BME280;53957;47.222;18.670;2023-03-04T15:28:18;99856.56;;;10.72;49.79
67052;BME280;53957;47.222;18.670;2023-03-04T15:31:22;99858.81;;;10.65;49.87
67052;BME280;53957;47.222;18.670;2023-03-04T15:34:27;99857.19;;;10.50;49.96
67052;BME280;53957;47.222;18.670;2023-03-04T15:37:30;99853.56;;;10.40;50.83
67052;BME280;53957;47.222;18.670;2023-03-04T15:40:39;99860.88;;;10.29;49.70
67052;BME280;53957;47.222;18.670;2023-03-04T15:43:45;99854.13;;;10.18;49.76
67052;BME280;53957;47.222;18.670;2023-03-04T15:46:48;99848.25;;;10.21;50.53
67052;BME280;53957;47.222;18.670;2023-03-04T15:49:55;99852.91;;;10.10;51.23
67052;BME280;53957;47.222;18.670;2023-03-04T15:53:01;99852.09;;;9.91;51.36
67052;BME280;53957;47.222;18.670;2023-03-04T15:56:09;99841.09;;;9.97;52.52
67052;BME280;53957;47.222;18.670;2023-03-04T15:59:14;99838.19;;;9.75;52.60
67052;BME280;53957;47.222;18.670;2023-03-04T16:02:38;99839.97;;;9.60;53.76
67052;BME280;53957;47.222;18.670;2023-03-04T16:05:47;99841.06;;;9.35;54.69
67052;BME280;53957;47.222;18.670;2023-03-04T16:09:12;99843.16;;;9.38;55.31
67052;BME280;53957;47.222;18.670;2023-03-04T16:12:28;99844.78;;;9.10;58.62
67052;BME280;53957;47.222;18.670;2023-03-04T16:26:51;99850.09;;;8.41;61.13
67052;BME280;53957;47.222;18.670;2023-03-04T16:29:55;99847.28;;;8.27;59.51
67052;BME280;53957;47.222;18.670;2023-03-04T16:33:02;99863.78;;;8.24;58.65
67052;BME280;53957;47.222;18.670;2023-03-04T16:36:18;99867.94;;;7.95;60.22
67052;BME280;53957;47.222;18.670;2023-03-04T16:39:23;99877.03;;;7.79;60.16
67052;BME280;53957;47.222;18.670;2023-03-04T16:42:32;99885.59;;;7.60;61.78
67052;BME280;53957;47.222;18.670;2023-03-04T16:45:35;99896.25;;;7.39;62.23
67052;BME280;53957;47.222;18.670;2023-03-04T16:48:46;99884.63;;;7.15;63.24
67052;BME280;53957;47.222;18.670;2023-03-04T16:51:49;99882.78;;;6.89;63.94
67052;BME280;53957;47.222;18.670;2023-03-04T16:54:57;99893.41;;;6.69;64.59
67052;BME280;53957;47.222;18.670;2023-03-04T16:58:10;99903.44;;;6.51;66.16
67052;BME280;53957;47.222;18.670;2023-03-04T17:01:17;99896.28;;;6.41;65.87
67052;BME280;53957;47.222;18.670;2023-03-04T17:04:30;99905.81;;;6.32;65.95
67052;BME280;53957;47.222;18.670;2023-03-04T17:07:35;99912.59;;;6.07;67.63
67052;BME280;53957;47.222;18.670;2023-03-04T17:10:38;99910.47;;;5.99;67.93
67052;BME280;53957;47.222;18.670;2023-03-04T17:14:20;99913.44;;;6.13;66.62
67052;BME280;53957;47.222;18.670;2023-03-04T17:17:24;99909.31;;;5.79;67.08
67052;BME280;53957;47.222;18.670;2023-03-04T17:20:44;99901.34;;;5.74;67.05
67052;BME280;53957;47.222;18.670;2023-03-04T17:24:08;99912.97;;;5.73;67.55
67052;BME280;53957;47.222;18.670;2023-03-04T17:27:15;99911.38;;;5.67;66.08
67052;BME280;53957;47.222;18.670;2023-03-04T17:30:18;99921.41;;;5.70;64.57
67052;BME280;53957;47.222;18.670;2023-03-04T17:33:31;99924.00;;;5.60;66.99
67052;BME280;53957;47.222;18.670;2023-03-04T17:36:35;99911.22;;;5.41;69.24
67052;BME280;53957;47.222;18.670;2023-03-04T17:48:23;99916.97;;;5.33;66.46
67052;BME280;53957;47.222;18.670;2023-03-04T17:52:27;99916.19;;;5.32;66.64
67052;BME280;53957;47.222;18.670;2023-03-04T17:55:54;99908.69;;;5.19;68.37
67052;BME280;53957;47.222;18.670;2023-03-04T17:58:59;99918.38;;;5.08;68.02
67052;BME280;53957;47.222;18.670;2023-03-04T18:02:27;99912.31;;;5.08;68.45
67052;BME280;53957;47.222;18.670;2023-03-04T18:06:30;99912.13;;;5.20;67.12
67052;BME280;53957;47.222;18.670;2023-03-04T18:09:53;99907.94;;;5.24;66.08
67052;BME280;53957;47.222;18.670;2023-03-04T18:43:18;99927.72;;;4.56;67.98
67052;BME280;53957;47.222;18.670;2023-03-04T18:47:22;99928.03;;;4.60;67.16
67052;BME280;53957;47.222;18.670;2023-03-04T19:41:36;99985.09;;;3.55;81.20
67052;BME280;53957;47.222;18.670;2023-03-04T19:45:19;99998.53;;;3.36;83.17
67052;BME280;53957;47.222;18.670;2023-03-04T19:49:02;100006.69;;;3.35;84.04
67052;BME280;53957;47.222;18.670;2023-03-04T19:52:09;100008.19;;;3.14;85.53
67052;BME280;53957;47.222;18.670;2023-03-04T19:55:36;100019.87;;;3.06;86.43
67052;BME280;53957;47.222;18.670;2023-03-04T20:29:24;100027.31;;;2.51;92.08
67052;BME280;53957;47.222;18.670;2023-03-04T20:33:29;100015.78;;;2.52;92.46
67052;BME280;53957;47.222;18.670;2023-03-04T20:36:52;100019.91;;;2.48;92.29
67052;BME280;53957;47.222;18.670;2023-03-04T20:40:15;100019.44;;;2.51;92.72
67052;BME280;53957;47.222;18.670;2023-03-04T20:55:09;100014.31;;;2.33;95.49
67052;BME280;53957;47.222;18.670;2023-03-04T20:58:54;100023.16;;;2.27;96.93
67052;BME280;53957;47.222;18.670;2023-03-04T21:01:57;100020.97;;;2.23;97.27
67052;BME280;53957;47.222;18.670;2023-03-04T21:05:03;100022.94;;;2.16;97.73
67052;BME280;53957;47.222;18.670;2023-03-04T21:08:06;100026.72;;;2.20;96.87
67052;BME280;53957;47.222;18.670;2023-03-04T21:11:14;100014.81;;;2.18;97.61
67052;BME280;53957;47.222;18.670;2023-03-04T21:14:29;100022.12;;;2.16;97.64
67052;BME280;53957;47.222;18.670;2023-03-04T21:17:52;100020.09;;;2.18;98.16
67052;BME280;53957;47.222;18.670;2023-03-04T21:21:14;100025.34;;;2.18;98.42
67052;BME280;53957;47.222;18.670;2023-03-04T21:24:26;100025.59;;;2.04;99.12
67052;BME280;53957;47.222;18.670;2023-03-04T21:27:49;100020.13;;;1.94;99.77
67052;BME280;53957;47.222;18.670;2023-03-04T21:30:53;100013.34;;;1.86;100.00
67052;BME280;53957;47.222;18.670;2023-03-04T21:33:58;100014.38;;;1.97;99.96
67052;BME280;53957;47.222;18.670;2023-03-04T21:37:23;100011.75;;;1.97;99.79
67052;BME280;53957;47.222;18.670;2023-03-04T21:40:26;100012.56;;;1.98;99.54
67052;BME280;53957;47.222;18.670;2023-03-04T21:43:30;100017.69;;;1.92;100.00
67052;BME280;53957;47.222;18.670;2023-03-04T21:46:33;100017.13;;;1.90;100.00
67052;BME280;53957;47.222;18.670;2023-03-04T21:49:40;100019.53;;;1.92;100.00
67052;BME280;53957;47.222;18.670;2023-03-04T21:52:43;100020.22;;;1.87;100.00
67052;BME280;53957;47.222;18.670;2023-03-04T21:56:06;100020.34;;;1.81;100.00
67052;BME280;53957;47.222;18.670;2023-03-04T21:59:11;100019.66;;;1.85;100.00
67052;BME280;53957;47.222;18.670;2023-03-04T22:02:20;100025.81;;;1.91;100.00
67052;BME280;53957;47.222;18.670;2023-03-04T22:05:26;100034.28;;;1.81;100.00
67052;BME280;53957;47.222;18.670;2023-03-04T22:08:30;100024.13;;;1.73;100.00
67052;BME280;53957;47.222;18.670;2023-03-04T22:11:37;100039.53;;;1.81;100.00
67052;BME280;53957;47.222;18.670;2023-03-04T22:15:19;100041.81;;;1.77;100.00
67052;BME280;53957;47.222;18.670;2023-03-04T22:18:25;100037.72;;;1.70;100.00
67052;BME280;53957;47.222;18.670;2023-03-04T22:21:49;100035.41;;;1.61;100.00
67052;BME280;53957;47.222;18.670;2023-03-04T22:24:53;100027.19;;;1.70;100.00
67052;BME280;53957;47.222;18.670;2023-03-04T22:27:57;100032.56;;;1.75;100.00
67052;BME280;53957;47.222;18.670;2023-03-04T22:31:00;100032.44;;;1.70;100.00
67052;BME280;53957;47.222;18.670;2023-03-04T22:34:11;100037.37;;;1.78;100.00
67052;BME280;53957;47.222;18.670;2023-03-04T22:37:34;100032.56;;;1.75;100.00
67052;BME280;53957;47.222;18.670;2023-03-04T22:40:38;100036.78;;;1.64;100.00
67052;BME280;53957;47.222;18.670;2023-03-04T22:44:10;100036.91;;;1.81;100.00
67052;BME280;53957;47.222;18.670;2023-03-04T22:47:16;100036.91;;;1.81;100.00
67052;BME280;53957;47.222;18.670;2023-03-04T22:50:21;100033.50;;;1.81;100.00
67052;BME280;53957;47.222;18.670;2023-03-04T22:53:45;100039.00;;;1.79;100.00
67052;BME280;53957;47.222;18.670;2023-03-04T22:56:49;100029.81;;;1.70;100.00
67052;BME280;53957;47.222;18.670;2023-03-04T22:59:52;100036.34;;;1.67;100.00
67052;BME280;53957;47.222;18.670;2023-03-04T23:03:16;100039.66;;;1.63;100.00
67052;BME280;53957;47.222;18.670;2023-03-04T23:06:23;100038.25;;;1.48;100.00
67052;BME280;53957;47.222;18.670;2023-03-04T23:09:28;100044.66;;;1.52;100.00
67052;BME280;53957;47.222;18.670;2023-03-04T23:12:51;100042.38;;;1.44;100.00
67052;BME280;53957;47.222;18.670;2023-03-04T23:16:35;100050.41;;;1.61;100.00
67052;BME280;53957;47.222;18.670;2023-03-04T23:19:42;100022.72;;;1.58;100.00
67052;BME280;53957;47.222;18.670;2023-03-04T23:22:47;100025.56;;;1.45;100.00
67052;BME280;53957;47.222;18.670;2023-03-04T23:25:52;100027.88;;;1.53;100.00
67052;BME280;53957;47.222;18.670;2023-03-04T23:28:55;100025.69;;;1.74;100.00
67052;BME280;53957;47.222;18.670;2023-03-04T23:32:18;100034.38;;;1.63;100.00
67052;BME280;53957;47.222;18.670;2023-03-04T23:35:22;100034.50;;;1.56;100.00
67052;BME280;53957;47.222;18.670;2023-03-04T23:38:26;100044.78;;;1.57;100.00
67052;BME280;53957;47.222;18.670;2023-03-04T23:41:30;100042.84;;;1.65;100.00
67052;BME280;53957;47.222;18.670;2023-03-04T23:44:35;100051.31;;;1.67;100.00
67052;BME280;53957;47.222;18.670;2023-03-04T23:47:39;100055.88;;;1.71;100.00
67052;BME280;53957;47.222;18.670;2023-03-04T23:50:49;100050.16;;;1.63;100.00
67052;BME280;53957;47.222;18.670;2023-03-04T23:54:11;100044.69;;;1.76;99.98
67052;BME280;53957;47.222;18.670;2023-03-04T23:57:14;100047.53;;;1.86;99.24
